createdAt,value
2017-09-13T00:00:08.823Z,0.40
2017-09-13T00:02:37.351Z,0.90
2017-09-13T00:05:05.158Z,0.30
2017-09-13T00:07:33.125Z,0.40
2017-09-13T00:10:00.830Z,1.00
2017-09-13T00:12:28.621Z,0.50
2017-09-13T00:14:56.458Z,0.60
2017-09-13T00:17:24.185Z,0.30
2017-09-13T00:19:51.952Z,0.63
2017-09-13T00:22:19.734Z,0.50
2017-09-13T00:24:47.439Z,0.40
2017-09-13T00:27:15.216Z,0.57
2017-09-13T00:29:42.961Z,0.60
2017-09-13T00:32:10.714Z,0.53
2017-09-13T00:34:38.438Z,0.80
2017-09-13T00:37:06.197Z,0.43
2017-09-13T00:39:33.944Z,0.50
2017-09-13T00:42:01.704Z,0.63
2017-09-13T00:44:29.490Z,1.60
2017-09-13T00:46:57.457Z,0.73
2017-09-13T00:49:25.193Z,0.97
2017-09-13T00:51:52.992Z,1.20
2017-09-13T00:54:20.916Z,0.77
2017-09-13T00:56:48.618Z,0.80
2017-09-13T00:59:16.382Z,0.80
2017-09-13T01:01:44.417Z,0.60
2017-09-13T01:04:12.141Z,0.83
2017-09-13T01:06:39.850Z,0.47
2017-09-13T01:09:07.966Z,1.30
2017-09-13T01:11:35.660Z,0.70
2017-09-13T01:14:05.440Z,0.87
2017-09-13T01:16:33.700Z,0.53
2017-09-13T01:19:01.443Z,1.17
2017-09-13T01:21:31.154Z,0.70
2017-09-13T01:24:00.696Z,0.57
2017-09-13T01:26:28.969Z,0.70
2017-09-13T01:28:57.794Z,0.60
2017-09-13T01:31:25.599Z,0.70
2017-09-13T01:33:53.377Z,0.73
2017-09-13T01:36:21.367Z,0.53
2017-09-13T01:38:49.085Z,0.40
2017-09-13T01:41:16.849Z,0.60
2017-09-13T01:43:45.433Z,0.77
2017-09-13T01:46:13.763Z,0.57
2017-09-13T01:48:41.532Z,0.53
2017-09-13T01:51:09.247Z,0.50
2017-09-13T01:53:36.949Z,0.60
2017-09-13T01:56:04.685Z,0.60
2017-09-13T01:58:32.922Z,0.53
2017-09-13T02:01:00.642Z,0.50
2017-09-13T02:03:28.515Z,0.60
2017-09-13T02:05:57.198Z,0.77
2017-09-13T02:08:24.912Z,0.73
2017-09-13T02:10:52.764Z,0.53
2017-09-13T02:13:20.449Z,0.87
2017-09-13T02:15:49.541Z,0.63
2017-09-13T02:18:17.302Z,0.90
2017-09-13T02:20:46.775Z,0.60
2017-09-13T02:23:14.558Z,0.57
2017-09-13T02:25:42.357Z,0.40
2017-09-13T02:28:10.135Z,0.50
2017-09-13T02:30:37.933Z,0.80
2017-09-13T02:33:05.647Z,0.50
2017-09-13T02:35:33.431Z,0.80
2017-09-13T02:38:01.175Z,0.63
2017-09-13T02:40:28.981Z,0.80
2017-09-13T02:42:56.697Z,0.50
2017-09-13T02:45:24.522Z,0.47
2017-09-13T02:47:52.223Z,0.70
2017-09-13T02:50:19.993Z,0.80
2017-09-13T02:52:47.690Z,0.63
2017-09-13T02:55:15.422Z,0.60
2017-09-13T02:57:43.227Z,0.33
2017-09-13T03:00:11.049Z,0.60
2017-09-13T03:02:38.815Z,0.60
2017-09-13T03:05:06.530Z,0.60
2017-09-13T03:07:34.369Z,0.63
2017-09-13T03:10:02.083Z,0.63
2017-09-13T03:12:29.920Z,0.70
2017-09-13T03:14:58.205Z,0.83
2017-09-13T03:17:25.933Z,0.60
2017-09-13T03:19:53.630Z,1.40
2017-09-13T03:22:21.400Z,1.40
2017-09-13T03:24:49.521Z,1.10
2017-09-13T03:27:17.275Z,0.97
2017-09-13T03:29:45.049Z,1.20
2017-09-13T03:32:12.793Z,1.57
2017-09-13T03:34:40.550Z,1.40
2017-09-13T03:37:08.268Z,1.17
2017-09-13T03:39:36.052Z,0.73
2017-09-13T03:42:04.633Z,1.43
2017-09-13T03:44:32.376Z,1.67
2017-09-13T03:47:00.142Z,2.20
2017-09-13T03:49:28.026Z,2.50
2017-09-13T03:51:55.754Z,3.23
2017-09-13T03:54:23.481Z,4.20
2017-09-13T03:56:51.231Z,4.50
2017-09-13T03:59:20.290Z,1.93
2017-09-13T04:01:48.121Z,2.60
2017-09-13T04:04:15.846Z,2.60
2017-09-13T04:06:43.632Z,3.07
2017-09-13T04:09:12.041Z,2.33
2017-09-13T04:11:39.794Z,2.43
2017-09-13T04:14:07.555Z,5.90
2017-09-13T04:16:35.297Z,3.03
2017-09-13T04:19:03.256Z,2.23
2017-09-13T04:21:31.590Z,1.07
2017-09-13T04:23:59.528Z,2.43
2017-09-13T04:26:28.383Z,2.60
2017-09-13T04:28:56.128Z,3.17
2017-09-13T04:31:23.864Z,4.00
2017-09-13T04:33:51.613Z,2.90
2017-09-13T04:36:19.378Z,2.73
2017-09-13T04:38:47.257Z,2.03
2017-09-13T04:41:15.029Z,2.20
2017-09-13T04:43:42.824Z,3.00
2017-09-13T04:46:10.637Z,3.20
2017-09-13T04:48:39.380Z,3.33
2017-09-13T04:51:07.162Z,2.10
2017-09-13T04:53:34.875Z,1.63
2017-09-13T04:56:02.666Z,1.60
2017-09-13T04:58:30.412Z,1.87
2017-09-13T05:00:58.139Z,5.60
2017-09-13T05:03:25.845Z,8.90
2017-09-13T05:05:53.620Z,11.70
2017-09-13T05:08:21.313Z,14.13
2017-09-13T05:10:49.040Z,16.90
2017-09-13T05:13:16.954Z,13.67
2017-09-13T05:15:44.858Z,13.27
2017-09-13T05:18:12.551Z,11.10
2017-09-13T05:20:40.296Z,7.80
2017-09-13T05:23:07.990Z,7.00
2017-09-13T05:25:35.692Z,6.93
2017-09-13T05:28:03.486Z,5.87
2017-09-13T05:30:31.196Z,5.30
2017-09-13T05:32:58.902Z,8.67
2017-09-13T05:35:26.680Z,6.33
2017-09-13T05:37:54.386Z,2.40
2017-09-13T05:40:22.122Z,3.13
2017-09-13T05:42:49.851Z,2.07
2017-09-13T05:45:17.545Z,2.80
2017-09-13T05:47:45.320Z,2.20
2017-09-13T05:50:13.028Z,1.63
2017-09-13T05:52:41.518Z,1.27
2017-09-13T05:55:09.296Z,0.80
2017-09-13T05:57:37.021Z,0.50
2017-09-13T06:00:04.787Z,1.60
2017-09-13T06:02:32.633Z,1.20
2017-09-13T06:05:00.396Z,1.90
2017-09-13T06:07:28.097Z,2.77
2017-09-13T06:09:55.902Z,2.17
2017-09-13T06:12:23.622Z,2.30
2017-09-13T06:14:51.393Z,1.50
2017-09-13T06:17:19.734Z,1.77
2017-09-13T06:19:47.445Z,1.07
2017-09-13T06:22:15.327Z,0.97
2017-09-13T06:24:43.091Z,1.57
2017-09-13T06:27:10.815Z,1.43
2017-09-13T06:29:38.699Z,1.40
2017-09-13T06:32:06.448Z,1.10
2017-09-13T06:34:34.245Z,1.43
2017-09-13T06:37:02.066Z,1.43
2017-09-13T06:39:29.874Z,1.30
2017-09-13T06:41:57.792Z,1.47
2017-09-13T06:44:25.618Z,1.23
2017-09-13T06:46:53.338Z,1.40
2017-09-13T06:49:21.226Z,2.03
2017-09-13T06:51:48.946Z,2.10
2017-09-13T06:54:16.741Z,1.93
2017-09-13T06:56:44.520Z,2.27
2017-09-13T06:59:12.225Z,1.70
2017-09-13T07:01:40.012Z,1.33
2017-09-13T07:04:07.825Z,0.70
2017-09-13T07:06:35.555Z,0.63
2017-09-13T07:09:03.446Z,1.10
2017-09-13T07:11:31.314Z,0.57
2017-09-13T07:13:59.019Z,0.70
2017-09-13T07:16:26.790Z,0.77
2017-09-13T07:18:54.520Z,0.80
2017-09-13T07:21:22.260Z,1.03
2017-09-13T07:23:50.002Z,0.90
2017-09-13T07:26:17.777Z,0.50
2017-09-13T07:28:45.534Z,0.80
2017-09-13T07:31:13.318Z,0.70
2017-09-13T07:33:41.140Z,0.73
2017-09-13T07:36:08.905Z,0.70
2017-09-13T07:38:36.649Z,0.47
2017-09-13T07:41:04.428Z,0.50
2017-09-13T07:43:32.142Z,0.90
2017-09-13T07:45:59.907Z,0.90
2017-09-13T07:48:27.636Z,0.60
2017-09-13T07:50:55.479Z,0.80
2017-09-13T07:53:23.204Z,0.83
2017-09-13T07:58:24.733Z,0.90
2017-09-13T08:00:52.453Z,1.37
2017-09-13T08:03:20.165Z,1.50
2017-09-13T08:05:47.951Z,1.60
2017-09-13T08:08:15.755Z,1.00
2017-09-13T08:10:43.545Z,1.80
2017-09-13T08:13:11.369Z,1.80
2017-09-13T08:15:39.101Z,1.83
2017-09-13T08:18:06.891Z,1.17
2017-09-13T08:20:34.646Z,1.30
2017-09-13T08:23:02.516Z,1.07
2017-09-13T08:25:30.297Z,1.90
2017-09-13T08:27:58.005Z,1.40
2017-09-13T08:30:25.774Z,0.87
2017-09-13T08:32:53.570Z,1.07
2017-09-13T08:35:21.356Z,0.80
2017-09-13T08:37:49.177Z,2.00
2017-09-13T08:40:16.947Z,5.97
2017-09-13T08:42:44.642Z,1.40
2017-09-13T08:45:12.388Z,0.70
2017-09-13T08:47:40.295Z,0.70
2017-09-13T08:50:08.102Z,0.77
2017-09-13T08:52:35.858Z,1.40
2017-09-13T08:55:03.706Z,0.90
2017-09-13T08:57:31.627Z,1.20
2017-09-13T08:59:59.587Z,0.67
2017-09-13T09:02:27.390Z,1.10
2017-09-13T09:04:55.205Z,0.70
2017-09-13T09:07:22.995Z,0.80
2017-09-13T09:09:51.831Z,0.93
2017-09-13T09:12:20.579Z,0.67
2017-09-13T09:14:48.324Z,1.10
2017-09-13T09:17:16.071Z,0.80
2017-09-13T09:19:44.193Z,1.13
2017-09-13T09:22:12.146Z,0.63
2017-09-13T09:24:40.266Z,0.93
2017-09-13T09:27:08.238Z,0.73
2017-09-13T09:29:35.994Z,1.17
2017-09-13T09:32:03.686Z,1.60
2017-09-13T09:34:31.472Z,0.53
2017-09-13T09:36:59.205Z,0.60
2017-09-13T09:39:27.103Z,0.70
2017-09-13T09:41:54.895Z,1.00
2017-09-13T09:44:22.641Z,0.80
2017-09-13T09:46:50.309Z,0.70
2017-09-13T09:49:18.066Z,0.70
2017-09-13T09:51:45.831Z,0.80
2017-09-13T09:54:13.793Z,0.73
2017-09-13T09:56:41.633Z,0.50
2017-09-13T09:59:09.383Z,0.50
2017-09-13T10:01:37.256Z,0.97
2017-09-13T10:04:05.023Z,0.70
2017-09-13T10:06:32.889Z,0.60
2017-09-13T10:09:00.635Z,1.40
2017-09-13T10:11:28.381Z,0.80
2017-09-13T10:13:56.178Z,0.93
2017-09-13T10:16:23.970Z,0.60
2017-09-13T10:18:51.736Z,0.73
2017-09-13T10:21:19.525Z,1.03
2017-09-13T10:23:47.242Z,0.60
2017-09-13T10:26:15.066Z,1.07
2017-09-13T10:28:42.833Z,0.77
2017-09-13T10:31:10.646Z,0.80
2017-09-13T10:33:38.397Z,0.60
2017-09-13T10:36:06.212Z,0.97
2017-09-13T10:38:33.963Z,1.10
2017-09-13T10:41:02.856Z,1.57
2017-09-13T10:43:31.144Z,1.07
2017-09-13T10:45:58.975Z,1.27
2017-09-13T10:48:26.865Z,1.00
2017-09-13T10:50:54.952Z,1.40
2017-09-13T10:53:22.801Z,1.10
2017-09-13T10:55:51.608Z,0.90
2017-09-13T10:58:19.402Z,1.10
2017-09-13T11:00:47.241Z,0.70
2017-09-13T11:03:15.091Z,1.17
2017-09-13T11:05:42.941Z,1.30
2017-09-13T11:08:10.720Z,1.30
2017-09-13T11:10:38.572Z,0.57
2017-09-13T11:13:06.322Z,1.20
2017-09-13T11:15:34.788Z,0.80
2017-09-13T11:18:02.569Z,0.60
2017-09-13T11:20:31.141Z,0.80
2017-09-13T11:22:59.697Z,1.10
2017-09-13T11:25:28.201Z,0.60
2017-09-13T11:27:56.001Z,1.27
2017-09-13T11:30:23.750Z,1.30
2017-09-13T11:32:53.303Z,2.57
2017-09-13T11:35:21.788Z,2.77
2017-09-13T11:37:49.754Z,1.07
2017-09-13T11:40:17.547Z,0.53
2017-09-13T11:42:45.316Z,0.73
2017-09-13T11:45:13.094Z,1.33
2017-09-13T11:47:49.028Z,1.10
2017-09-13T11:50:16.815Z,0.83
2017-09-13T11:52:44.611Z,0.70
2017-09-13T11:55:12.687Z,0.57
2017-09-13T11:57:40.494Z,0.70
2017-09-13T12:00:08.225Z,0.70
2017-09-13T12:02:36.024Z,0.97
2017-09-13T12:05:04.136Z,1.17
2017-09-13T12:07:31.949Z,1.57
2017-09-13T12:09:59.760Z,1.30
2017-09-13T12:12:27.547Z,1.30
2017-09-13T12:14:56.326Z,0.90
2017-09-13T12:17:24.191Z,1.00
2017-09-13T12:19:51.965Z,2.10
2017-09-13T12:22:19.742Z,0.50
2017-09-13T12:24:48.517Z,0.47
2017-09-13T12:27:16.824Z,0.70
2017-09-13T12:29:44.681Z,0.80
2017-09-13T12:32:12.430Z,0.67
2017-09-13T12:34:40.699Z,0.57
2017-09-13T12:37:08.853Z,0.90
2017-09-13T12:39:36.777Z,0.50
2017-09-13T12:42:04.615Z,0.70
2017-09-13T12:44:32.536Z,0.60
2017-09-13T12:47:00.264Z,0.70
2017-09-13T12:49:28.656Z,1.50
2017-09-13T12:51:56.488Z,1.10
2017-09-13T12:54:24.332Z,0.90
2017-09-13T12:56:53.184Z,0.90
2017-09-13T12:59:21.498Z,0.63
2017-09-13T13:01:49.305Z,0.90
2017-09-13T13:04:17.599Z,0.70
2017-09-13T13:06:45.397Z,1.83
2017-09-13T13:09:13.435Z,0.90
2017-09-13T13:11:42.204Z,1.57
2017-09-13T13:14:12.099Z,2.43
2017-09-13T13:16:41.083Z,1.77
2017-09-13T13:19:10.103Z,1.67
2017-09-13T13:21:37.883Z,0.67
2017-09-13T13:24:06.198Z,0.77
2017-09-13T13:26:34.572Z,0.50
2017-09-13T13:29:02.390Z,0.80
2017-09-13T13:31:30.116Z,0.70
2017-09-13T13:33:58.203Z,0.87
2017-09-13T13:36:26.707Z,1.90
2017-09-13T13:38:54.481Z,1.10
2017-09-13T13:41:22.727Z,0.67
2017-09-13T13:43:51.659Z,0.60
2017-09-13T13:46:19.465Z,0.80
2017-09-13T13:48:47.218Z,0.50
2017-09-13T13:51:14.973Z,1.50
2017-09-13T13:53:42.865Z,0.70
2017-09-13T13:56:10.681Z,0.63
2017-09-13T13:58:39.331Z,0.80
2017-09-13T14:01:07.764Z,0.70
2017-09-13T14:03:35.973Z,1.00
2017-09-13T14:06:03.752Z,0.60
2017-09-13T14:08:32.706Z,0.87
2017-09-13T14:11:01.275Z,1.00
2017-09-13T14:13:29.116Z,0.50
2017-09-13T14:15:57.090Z,0.50
2017-09-13T14:18:24.909Z,0.60
2017-09-13T14:20:52.988Z,0.70
2017-09-13T14:23:20.862Z,1.30
2017-09-13T14:25:48.678Z,3.83
2017-09-13T14:28:17.028Z,1.87
2017-09-13T14:30:44.846Z,0.80
2017-09-13T14:33:12.593Z,0.70
2017-09-13T14:35:40.599Z,0.77
2017-09-13T14:38:09.113Z,0.80
2017-09-13T14:40:36.951Z,1.37
2017-09-13T14:43:05.583Z,1.70
2017-09-13T14:45:33.887Z,0.93
2017-09-13T14:48:01.784Z,1.07
2017-09-13T14:50:31.206Z,0.73
2017-09-13T14:52:59.130Z,0.50
2017-09-13T14:55:26.973Z,1.13
2017-09-13T14:57:54.693Z,0.70
2017-09-13T15:00:23.232Z,0.63
2017-09-13T15:02:50.968Z,0.77
2017-09-13T15:05:19.149Z,1.17
2017-09-13T15:07:46.926Z,1.57
2017-09-13T15:10:14.646Z,0.70
2017-09-13T15:12:42.446Z,0.83
2017-09-13T15:15:10.326Z,0.93
2017-09-13T15:17:38.346Z,1.83
2017-09-13T15:20:06.275Z,3.83
2017-09-13T15:22:34.327Z,1.80
2017-09-13T15:25:02.417Z,0.60
2017-09-13T15:27:30.263Z,1.10
2017-09-13T15:29:58.757Z,1.10
2017-09-13T15:32:26.556Z,0.57
2017-09-13T15:34:54.422Z,0.60
2017-09-13T15:37:22.472Z,0.40
2017-09-13T15:39:50.222Z,0.40
2017-09-13T15:42:17.964Z,1.23
2017-09-13T15:44:46.943Z,1.40
2017-09-13T15:47:14.834Z,1.90
2017-09-13T15:49:42.620Z,1.90
2017-09-13T15:52:10.477Z,1.70
2017-09-13T15:54:38.235Z,1.20
2017-09-13T15:57:06.103Z,1.30
2017-09-13T15:59:33.912Z,0.90
2017-09-13T16:02:01.718Z,1.03
2017-09-13T16:04:30.335Z,0.93
2017-09-13T16:06:58.112Z,0.83
2017-09-13T16:09:26.742Z,1.17
2017-09-13T16:11:54.529Z,0.93
2017-09-13T16:14:23.169Z,0.73
2017-09-13T16:16:52.882Z,0.67
2017-09-13T16:19:20.603Z,1.33
2017-09-13T16:21:48.687Z,1.10
2017-09-13T16:24:16.417Z,1.70
2017-09-13T16:26:44.545Z,1.30
2017-09-13T16:29:12.367Z,0.70
2017-09-13T16:31:40.123Z,0.60
2017-09-13T16:34:07.830Z,1.00
2017-09-13T16:36:35.623Z,0.77
2017-09-13T16:39:03.478Z,1.67
2017-09-13T16:41:31.298Z,3.60
2017-09-13T16:43:59.134Z,4.80
2017-09-13T16:46:26.877Z,3.10
2017-09-13T16:48:54.720Z,3.03
2017-09-13T16:51:22.430Z,2.20
2017-09-13T16:53:50.124Z,1.27
2017-09-13T16:56:17.972Z,0.93
2017-09-13T16:58:45.846Z,1.10
2017-09-13T17:01:13.622Z,0.90
2017-09-13T17:03:41.422Z,1.53
2017-09-13T17:06:09.386Z,1.50
2017-09-13T17:08:37.762Z,0.90
2017-09-13T17:11:05.603Z,1.00
2017-09-13T17:13:33.409Z,0.90
2017-09-13T17:16:02.419Z,0.70
2017-09-13T17:18:30.234Z,1.17
2017-09-13T17:20:58.027Z,1.23
2017-09-13T17:23:25.758Z,1.30
2017-09-13T17:25:53.533Z,1.30
2017-09-13T17:28:21.504Z,0.60
2017-09-13T17:30:50.502Z,1.33
2017-09-13T17:33:18.334Z,1.07
2017-09-13T17:35:46.214Z,1.00
2017-09-13T17:38:14.017Z,1.07
2017-09-13T17:40:41.758Z,1.03
2017-09-13T17:43:09.626Z,0.87
2017-09-13T17:45:37.712Z,1.50
2017-09-13T17:48:06.258Z,1.17
2017-09-13T17:50:34.281Z,1.20
2017-09-13T17:53:02.639Z,3.37
2017-09-13T17:55:30.435Z,2.60
2017-09-13T17:57:58.327Z,1.27
2017-09-13T18:00:26.168Z,1.47
2017-09-13T18:02:54.118Z,1.17
2017-09-13T18:05:22.173Z,1.00
2017-09-13T18:07:50.481Z,0.70
2017-09-13T18:10:18.281Z,0.93
2017-09-13T18:12:46.087Z,1.10
2017-09-13T18:15:13.940Z,1.03
2017-09-13T18:17:41.793Z,1.27
2017-09-13T18:20:09.639Z,1.17
2017-09-13T18:22:37.471Z,0.97
2017-09-13T18:25:05.252Z,1.73
2017-09-13T18:27:33.042Z,1.00
2017-09-13T18:30:01.068Z,1.10
2017-09-13T18:32:28.829Z,1.40
2017-09-13T18:34:56.626Z,1.10
2017-09-13T18:37:24.449Z,1.40
2017-09-13T18:39:52.193Z,0.97
2017-09-13T18:42:20.479Z,0.90
2017-09-13T18:44:48.311Z,1.60
2017-09-13T18:47:16.956Z,1.20
2017-09-13T18:49:44.782Z,0.90
2017-09-13T18:52:13.043Z,0.80
2017-09-13T18:54:40.860Z,0.80
2017-09-13T18:57:08.874Z,1.20
2017-09-13T18:59:36.745Z,1.17
2017-09-13T19:02:06.627Z,1.40
2017-09-13T19:04:36.067Z,1.23
2017-09-13T19:07:03.890Z,1.47
2017-09-13T19:09:32.683Z,1.37
2017-09-13T19:12:00.533Z,0.83
2017-09-13T19:14:28.296Z,1.13
2017-09-13T19:16:56.150Z,1.30
2017-09-13T19:19:23.977Z,0.87
2017-09-13T19:21:51.691Z,1.27
2017-09-13T19:24:19.672Z,1.30
2017-09-13T19:26:47.431Z,0.70
2017-09-13T19:29:15.174Z,1.13
2017-09-13T19:31:43.327Z,1.20
2017-09-13T19:34:11.123Z,1.60
2017-09-13T19:36:38.964Z,1.47
2017-09-13T19:39:10.317Z,1.37
2017-09-13T19:41:39.271Z,1.03
2017-09-13T19:44:07.065Z,1.20
2017-09-13T19:46:36.022Z,0.97
2017-09-13T19:49:04.876Z,1.30
2017-09-13T19:51:32.896Z,1.80
2017-09-13T19:54:00.680Z,1.20
2017-09-13T19:56:28.405Z,0.80
2017-09-13T19:58:56.189Z,1.93
2017-09-13T20:01:24.734Z,1.93
2017-09-13T20:03:52.441Z,1.40
2017-09-13T20:06:20.580Z,1.27
2017-09-13T20:08:49.493Z,1.73
2017-09-13T20:11:18.577Z,1.27
2017-09-13T20:13:47.126Z,1.37
2017-09-13T20:16:14.917Z,1.13
2017-09-13T20:18:43.384Z,1.00
2017-09-13T20:21:11.155Z,1.50
2017-09-13T20:23:38.858Z,1.90
2017-09-13T20:26:06.600Z,2.43
2017-09-13T20:28:34.334Z,1.47
2017-09-13T20:31:02.043Z,2.40
2017-09-13T20:33:29.796Z,2.10
2017-09-13T20:35:58.064Z,1.37
2017-09-13T20:38:27.021Z,2.20
2017-09-13T20:40:55.752Z,2.73
2017-09-13T20:43:23.544Z,1.90
2017-09-13T20:45:52.188Z,1.33
2017-09-13T20:48:20.360Z,1.60
2017-09-13T20:50:49.239Z,1.70
2017-09-13T20:53:17.059Z,2.10
2017-09-13T20:55:44.944Z,1.63
2017-09-13T20:58:14.247Z,1.50
2017-09-13T21:00:42.022Z,1.47
2017-09-13T21:03:09.785Z,1.20
2017-09-13T21:05:38.148Z,1.37
2017-09-13T21:08:09.858Z,1.20
2017-09-13T21:10:39.302Z,1.30
2017-09-13T21:13:07.744Z,1.50
2017-09-13T21:15:36.865Z,1.03
2017-09-13T21:18:05.719Z,2.10
2017-09-13T21:20:33.485Z,1.40
2017-09-13T21:23:01.393Z,1.23
2017-09-13T21:25:29.170Z,1.27
2017-09-13T21:27:57.575Z,2.00
2017-09-13T21:30:25.375Z,1.00
2017-09-13T21:32:53.079Z,1.00
2017-09-13T21:35:21.740Z,1.40
2017-09-13T21:37:50.140Z,2.17
2017-09-13T21:40:17.850Z,1.00
2017-09-13T21:42:45.638Z,1.20
2017-09-13T21:45:13.423Z,1.10
2017-09-13T21:47:41.763Z,0.97
2017-09-13T21:50:09.485Z,1.00
2017-09-13T21:52:37.321Z,1.20
2017-09-13T21:55:05.043Z,1.67
2017-09-13T21:57:32.882Z,1.03
2017-09-13T22:00:02.239Z,0.90
2017-09-13T22:02:30.019Z,1.50
2017-09-13T22:04:57.894Z,1.10
2017-09-13T22:07:26.067Z,1.17
2017-09-13T22:09:53.835Z,1.07
2017-09-13T22:12:22.632Z,1.40
2017-09-13T22:14:50.703Z,1.30
2017-09-13T22:17:19.145Z,1.73
2017-09-13T22:19:46.921Z,1.10
2017-09-13T22:22:14.891Z,1.70
2017-09-13T22:24:42.997Z,1.57
2017-09-13T22:27:11.941Z,1.43
2017-09-13T22:29:40.431Z,1.10
2017-09-13T22:32:08.351Z,1.30
2017-09-13T22:34:36.575Z,1.67
2017-09-13T22:37:04.304Z,1.30
2017-09-13T22:39:32.072Z,1.03
2017-09-13T22:41:59.781Z,1.27
2017-09-13T22:44:28.645Z,1.60
2017-09-13T22:46:56.384Z,1.57
2017-09-13T22:49:25.776Z,1.10
2017-09-13T22:51:56.511Z,1.33
2017-09-13T22:54:24.367Z,1.30
2017-09-13T22:56:53.438Z,1.60
2017-09-13T22:59:21.507Z,1.00
2017-09-13T23:01:50.841Z,1.23
2017-09-13T23:04:18.520Z,1.27
2017-09-13T23:06:46.264Z,1.27
2017-09-13T23:09:13.981Z,2.53
2017-09-13T23:11:41.860Z,1.30
2017-09-13T23:14:11.248Z,1.57
2017-09-13T23:16:39.087Z,0.90
2017-09-13T23:19:08.099Z,1.20
2017-09-13T23:21:36.632Z,0.93
2017-09-13T23:24:05.590Z,1.10
2017-09-13T23:26:35.121Z,1.17
2017-09-13T23:29:03.057Z,1.30
2017-09-13T23:31:32.865Z,1.30
2017-09-13T23:34:00.597Z,1.37
2017-09-13T23:36:28.377Z,1.23
2017-09-13T23:38:57.200Z,1.03
2017-09-13T23:41:25.035Z,1.10
2017-09-13T23:43:53.421Z,0.77
2017-09-13T23:46:21.239Z,1.27
2017-09-13T23:48:48.973Z,1.10
2017-09-13T23:51:16.716Z,0.90
2017-09-13T23:53:46.154Z,1.13
2017-09-13T23:56:14.922Z,1.10
2017-09-13T23:58:42.633Z,0.90
